sensor_id;sensor_type;location;lat;lon;timestamp;P1;durP1;ratioP1;P2;durP2;ratioP2
5827;SDS011;42583;50.240;8.444;2023-02-12T00:06:52;298.10;;;14.57;;
5827;SDS011;42583;50.240;8.444;2023-02-12T00:21:53;421.85;;;17.05;;
5827;SDS011;42583;50.240;8.444;2023-02-12T00:36:53;524.20;;;16.70;;
5827;SDS011;42583;50.240;8.444;2023-02-12T00:51:54;260.63;;;11.30;;
5827;SDS011;42583;50.240;8.444;2023-02-12T01:06:54;477.63;;;16.58;;
5827;SDS011;42583;50.240;8.444;2023-02-12T01:21:55;193.15;;;11.25;;
5827;SDS011;42583;50.240;8.444;2023-02-12T01:36:55;160.82;;;12.15;;
5827;SDS011;42583;50.240;8.444;2023-02-12T01:51:59;205.38;;;12.95;;
5827;SDS011;42583;50.240;8.444;2023-02-12T02:07:04;189.18;;;13.20;;
5827;SDS011;42583;50.240;8.444;2023-02-12T02:37:31;410.45;;;14.48;;
5827;SDS011;42583;50.240;8.444;2023-02-12T02:52:39;245.47;;;11.60;;
5827;SDS011;42583;50.240;8.444;2023-02-12T03:07:49;197.40;;;12.00;;
5827;SDS011;42583;50.240;8.444;2023-02-12T03:23:01;211.85;;;11.85;;
5827;SDS011;42583;50.240;8.444;2023-02-12T03:38:08;144.15;;;11.00;;
5827;SDS011;42583;50.240;8.444;2023-02-12T03:53:15;80.22;;;10.18;;
5827;SDS011;42583;50.240;8.444;2023-02-12T04:08:15;97.35;;;11.15;;
5827;SDS011;42583;50.240;8.444;2023-02-12T04:23:38;202.95;;;12.15;;
5827;SDS011;42583;50.240;8.444;2023-02-12T04:38:48;143.40;;;12.45;;
5827;SDS011;42583;50.240;8.444;2023-02-12T04:53:56;315.40;;;11.80;;
5827;SDS011;42583;50.240;8.444;2023-02-12T05:08:57;204.90;;;10.35;;
5827;SDS011;42583;50.240;8.444;2023-02-12T05:23:57;39.85;;;9.93;;
5827;SDS011;42583;50.240;8.444;2023-02-12T05:38:59;24.67;;;8.40;;
5827;SDS011;42583;50.240;8.444;2023-02-12T05:54:01;21.77;;;7.88;;
5827;SDS011;42583;50.240;8.444;2023-02-12T06:09:04;14.40;;;6.35;;
5827;SDS011;42583;50.240;8.444;2023-02-12T06:24:04;9.45;;;4.10;;
5827;SDS011;42583;50.240;8.444;2023-02-12T06:39:05;27.63;;;6.40;;
5827;SDS011;42583;50.240;8.444;2023-02-12T06:54:11;41.63;;;6.35;;
5827;SDS011;42583;50.240;8.444;2023-02-12T07:09:13;84.07;;;6.80;;
5827;SDS011;42583;50.240;8.444;2023-02-12T07:24:14;76.72;;;5.55;;
5827;SDS011;42583;50.240;8.444;2023-02-12T07:39:17;73.72;;;5.90;;
5827;SDS011;42583;50.240;8.444;2023-02-12T07:54:17;42.38;;;6.68;;
5827;SDS011;42583;50.240;8.444;2023-02-12T08:09:19;14.18;;;4.70;;
5827;SDS011;42583;50.240;8.444;2023-02-12T08:24:22;56.40;;;3.40;;
5827;SDS011;42583;50.240;8.444;2023-02-12T08:39:24;1.33;;;0.95;;
5827;SDS011;42583;50.240;8.444;2023-02-12T08:54:27;1.00;;;1.00;;
5827;SDS011;42583;50.240;8.444;2023-02-12T09:09:29;1.40;;;1.20;;
5827;SDS011;42583;50.240;8.444;2023-02-12T09:24:29;2.55;;;1.38;;
5827;SDS011;42583;50.240;8.444;2023-02-12T09:39:31;2.17;;;1.42;;
5827;SDS011;42583;50.240;8.444;2023-02-12T09:54:36;2.08;;;1.50;;
5827;SDS011;42583;50.240;8.444;2023-02-12T10:09:54;2.58;;;1.52;;
5827;SDS011;42583;50.240;8.444;2023-02-12T10:25:08;3.83;;;2.20;;
5827;SDS011;42583;50.240;8.444;2023-02-12T10:40:26;5.55;;;2.70;;
5827;SDS011;42583;50.240;8.444;2023-02-12T10:55:32;6.35;;;3.00;;
5827;SDS011;42583;50.240;8.444;2023-02-12T11:10:37;5.60;;;2.75;;
5827;SDS011;42583;50.240;8.444;2023-02-12T11:25:40;5.47;;;2.45;;
5827;SDS011;42583;50.240;8.444;2023-02-12T11:41:26;4.25;;;2.47;;
5827;SDS011;42583;50.240;8.444;2023-02-12T11:56:45;5.63;;;3.00;;
5827;SDS011;42583;50.240;8.444;2023-02-12T12:11:49;3.75;;;1.90;;
5827;SDS011;42583;50.240;8.444;2023-02-12T12:26:59;3.10;;;1.90;;
5827;SDS011;42583;50.240;8.444;2023-02-12T12:42:41;6.00;;;2.90;;
5827;SDS011;42583;50.240;8.444;2023-02-12T13:28:49;6.38;;;3.10;;
5827;SDS011;42583;50.240;8.444;2023-02-12T13:44:00;8.73;;;3.72;;
5827;SDS011;42583;50.240;8.444;2023-02-12T14:14:36;7.38;;;3.40;;
5827;SDS011;42583;50.240;8.444;2023-02-12T14:29:44;10.80;;;4.47;;
5827;SDS011;42583;50.240;8.444;2023-02-12T14:45:00;10.93;;;5.05;;
5827;SDS011;42583;50.240;8.444;2023-02-12T15:15:27;14.47;;;6.77;;
5827;SDS011;42583;50.240;8.444;2023-02-12T15:30:34;62.50;;;11.73;;
5827;SDS011;42583;50.240;8.444;2023-02-12T15:45:35;54.72;;;14.90;;
5827;SDS011;42583;50.240;8.444;2023-02-12T16:00:39;94.00;;;14.05;;
5827;SDS011;42583;50.240;8.444;2023-02-12T16:15:42;244.30;;;14.77;;
5827;SDS011;42583;50.240;8.444;2023-02-12T16:30:42;89.30;;;9.52;;
5827;SDS011;42583;50.240;8.444;2023-02-12T16:45:47;132.18;;;8.07;;
5827;SDS011;42583;50.240;8.444;2023-02-12T17:00:47;144.02;;;7.04;;
5827;SDS011;42583;50.240;8.444;2023-02-12T17:15:49;73.97;;;6.82;;
5827;SDS011;42583;50.240;8.444;2023-02-12T17:30:56;205.65;;;6.97;;
5827;SDS011;42583;50.240;8.444;2023-02-12T17:45:56;225.82;;;7.32;;
5827;SDS011;42583;50.240;8.444;2023-02-12T18:01:02;88.38;;;5.72;;
5827;SDS011;42583;50.240;8.444;2023-02-12T18:16:05;72.07;;;5.22;;
5827;SDS011;42583;50.240;8.444;2023-02-12T18:31:09;107.60;;;6.07;;
5827;SDS011;42583;50.240;8.444;2023-02-12T18:46:13;57.50;;;5.68;;
5827;SDS011;42583;50.240;8.444;2023-02-12T19:01:17;50.33;;;6.35;;
5827;SDS011;42583;50.240;8.444;2023-02-12T19:16:18;19.40;;;7.63;;
5827;SDS011;42583;50.240;8.444;2023-02-12T19:31:21;19.13;;;7.68;;
5827;SDS011;42583;50.240;8.444;2023-02-12T19:46:27;20.42;;;7.97;;
5827;SDS011;42583;50.240;8.444;2023-02-12T20:01:29;36.08;;;8.68;;
5827;SDS011;42583;50.240;8.444;2023-02-12T20:16:30;21.67;;;9.35;;
5827;SDS011;42583;50.240;8.444;2023-02-12T20:31:35;33.42;;;8.38;;
5827;SDS011;42583;50.240;8.444;2023-02-12T20:46:36;40.25;;;8.73;;
5827;SDS011;42583;50.240;8.444;2023-02-12T21:01:41;22.73;;;8.27;;
5827;SDS011;42583;50.240;8.444;2023-02-12T21:16:42;60.63;;;7.30;;
5827;SDS011;42583;50.240;8.444;2023-02-12T21:31:46;88.20;;;8.05;;
5827;SDS011;42583;50.240;8.444;2023-02-12T21:46:48;215.15;;;9.52;;
5827;SDS011;42583;50.240;8.444;2023-02-12T22:01:50;118.68;;;7.45;;
5827;SDS011;42583;50.240;8.444;2023-02-12T22:16:51;201.20;;;8.27;;
5827;SDS011;42583;50.240;8.444;2023-02-12T22:31:52;444.50;;;11.55;;
5827;SDS011;42583;50.240;8.444;2023-02-12T22:46:54;183.80;;;6.88;;
5827;SDS011;42583;50.240;8.444;2023-02-12T23:01:54;84.32;;;5.75;;
5827;SDS011;42583;50.240;8.444;2023-02-12T23:16:56;255.00;;;7.57;;
5827;SDS011;42583;50.240;8.444;2023-02-12T23:31:57;247.05;;;7.70;;
5827;SDS011;42583;50.240;8.444;2023-02-12T23:46:58;173.15;;;7.32;;
